sensor_id;sensor_type;location;lat;lon;timestamp;pressure;altitude;pressure_sealevel;temperature
25985;BMP280;66753;53.848;10.658;2024-02-21T00:12:32;101829.56;;;9.99
25985;BMP280;66753;53.848;10.658;2024-02-21T00:27:34;101802.50;;;10.02
25985;BMP280;66753;53.848;10.658;2024-02-21T00:42:36;101782.25;;;10.06
25985;BMP280;66753;53.848;10.658;2024-02-21T00:57:37;101755.03;;;10.14
25985;BMP280;66753;53.848;10.658;2024-02-21T01:12:38;101737.94;;;10.20
25985;BMP280;66753;53.848;10.658;2024-02-21T01:27:39;101720.75;;;10.17
25985;BMP280;66753;53.848;10.658;2024-02-21T01:42:40;101720.13;;;10.12
25985;BMP280;66753;53.848;10.658;2024-02-21T01:57:42;101694.38;;;10.04
25985;BMP280;66753;53.848;10.658;2024-02-21T02:12:48;101672.84;;;9.97
25985;BMP280;66753;53.848;10.658;2024-02-21T02:27:49;101612.72;;;9.97
25985;BMP280;66753;53.848;10.658;2024-02-21T02:42:50;101556.75;;;9.99
25985;BMP280;66753;53.848;10.658;2024-02-21T02:57:55;101564.69;;;9.99
25985;BMP280;66753;53.848;10.658;2024-02-21T03:12:57;101554.09;;;9.99
25985;BMP280;66753;53.848;10.658;2024-02-21T03:27:58;101565.03;;;10.06
25985;BMP280;66753;53.848;10.658;2024-02-21T03:43:00;101573.78;;;10.15
25985;BMP280;66753;53.848;10.658;2024-02-21T03:58:02;101566.28;;;10.17
25985;BMP280;66753;53.848;10.658;2024-02-21T04:13:05;101534.50;;;10.17
25985;BMP280;66753;53.848;10.658;2024-02-21T04:28:07;101514.88;;;10.18
25985;BMP280;66753;53.848;10.658;2024-02-21T04:43:08;101523.78;;;10.22
25985;BMP280;66753;53.848;10.658;2024-02-21T04:58:10;101518.16;;;10.23
25985;BMP280;66753;53.848;10.658;2024-02-21T05:13:13;101532.03;;;10.20
25985;BMP280;66753;53.848;10.658;2024-02-21T05:28:14;101526.84;;;10.15
25985;BMP280;66753;53.848;10.658;2024-02-21T05:43:16;101535.75;;;10.11
25985;BMP280;66753;53.848;10.658;2024-02-21T05:58:17;101560.22;;;10.16
25985;BMP280;66753;53.848;10.658;2024-02-21T06:13:18;101566.56;;;9.98
25985;BMP280;66753;53.848;10.658;2024-02-21T06:28:24;101555.91;;;9.81
25985;BMP280;66753;53.848;10.658;2024-02-21T06:43:26;101552.16;;;9.74
25985;BMP280;66753;53.848;10.658;2024-02-21T06:58:28;101567.00;;;9.83
25985;BMP280;66753;53.848;10.658;2024-02-21T07:13:30;101557.16;;;9.84
25985;BMP280;66753;53.848;10.658;2024-02-21T07:28:33;101545.22;;;9.86
25985;BMP280;66753;53.848;10.658;2024-02-21T07:43:34;101553.22;;;10.20
25985;BMP280;66753;53.848;10.658;2024-02-21T07:58:36;101570.06;;;10.33
25985;BMP280;66753;53.848;10.658;2024-02-21T08:13:38;101547.63;;;10.47
25985;BMP280;66753;53.848;10.658;2024-02-21T08:28:39;101546.41;;;10.62
25985;BMP280;66753;53.848;10.658;2024-02-21T08:43:41;101537.34;;;10.63
25985;BMP280;66753;53.848;10.658;2024-02-21T08:58:42;101517.50;;;10.94
25985;BMP280;66753;53.848;10.658;2024-02-21T09:13:44;101519.19;;;11.53
25985;BMP280;66753;53.848;10.658;2024-02-21T09:28:46;101490.03;;;11.45
25985;BMP280;66753;53.848;10.658;2024-02-21T09:43:49;101460.28;;;11.80
25985;BMP280;66753;53.848;10.658;2024-02-21T09:58:54;101458.75;;;12.00
25985;BMP280;66753;53.848;10.658;2024-02-21T10:14:07;101440.44;;;12.19
25985;BMP280;66753;53.848;10.658;2024-02-21T10:29:09;101457.34;;;12.23
25985;BMP280;66753;53.848;10.658;2024-02-21T10:44:11;101428.59;;;12.49
25985;BMP280;66753;53.848;10.658;2024-02-21T10:59:13;101432.84;;;12.50
25985;BMP280;66753;53.848;10.658;2024-02-21T11:14:18;101432.84;;;12.50
25985;BMP280;66753;53.848;10.658;2024-02-21T11:29:25;101438.22;;;12.41
25985;BMP280;66753;53.848;10.658;2024-02-21T11:44:27;101419.69;;;12.33
25985;BMP280;66753;53.848;10.658;2024-02-21T11:59:32;101406.91;;;12.26
25985;BMP280;66753;53.848;10.658;2024-02-21T12:14:35;101377.03;;;12.29
25985;BMP280;66753;53.848;10.658;2024-02-21T12:29:36;101356.25;;;12.11
25985;BMP280;66753;53.848;10.658;2024-02-21T12:44:38;101361.97;;;12.01
25985;BMP280;66753;53.848;10.658;2024-02-21T12:59:40;101341.16;;;11.70
25985;BMP280;66753;53.848;10.658;2024-02-21T13:14:42;101337.88;;;11.53
25985;BMP280;66753;53.848;10.658;2024-02-21T13:29:45;101316.53;;;11.20
25985;BMP280;66753;53.848;10.658;2024-02-21T13:44:46;101290.47;;;11.22
25985;BMP280;66753;53.848;10.658;2024-02-21T13:59:48;101255.47;;;11.29
25985;BMP280;66753;53.848;10.658;2024-02-21T14:14:50;101216.75;;;11.07
25985;BMP280;66753;53.848;10.658;2024-02-21T14:29:52;101178.53;;;11.08
25985;BMP280;66753;53.848;10.658;2024-02-21T14:44:54;101141.03;;;11.30
25985;BMP280;66753;53.848;10.658;2024-02-21T15:00:07;101094.03;;;11.31
25985;BMP280;66753;53.848;10.658;2024-02-21T15:15:09;101059.94;;;11.21
25985;BMP280;66753;53.848;10.658;2024-02-21T15:30:11;101051.13;;;11.29
25985;BMP280;66753;53.848;10.658;2024-02-21T15:45:12;101025.53;;;11.12
25985;BMP280;66753;53.848;10.658;2024-02-21T16:00:15;100982.28;;;11.00
25985;BMP280;66753;53.848;10.658;2024-02-21T16:15:17;100951.50;;;10.75
25985;BMP280;66753;53.848;10.658;2024-02-21T16:30:18;100946.59;;;10.53
25985;BMP280;66753;53.848;10.658;2024-02-21T16:45:20;100914.03;;;10.32
25985;BMP280;66753;53.848;10.658;2024-02-21T17:00:22;100853.53;;;10.22
25985;BMP280;66753;53.848;10.658;2024-02-21T17:15:23;100844.88;;;10.13
25985;BMP280;66753;53.848;10.658;2024-02-21T17:30:25;100849.25;;;9.97
25985;BMP280;66753;53.848;10.658;2024-02-21T17:45:27;100825.16;;;9.90
25985;BMP280;66753;53.848;10.658;2024-02-21T18:00:28;100781.75;;;9.82
25985;BMP280;66753;53.848;10.658;2024-02-21T18:15:33;100730.78;;;9.73
25985;BMP280;66753;53.848;10.658;2024-02-21T18:30:36;100698.00;;;9.66
25985;BMP280;66753;53.848;10.658;2024-02-21T18:45:38;100665.69;;;9.60
25985;BMP280;66753;53.848;10.658;2024-02-21T19:00:41;100627.94;;;9.51
25985;BMP280;66753;53.848;10.658;2024-02-21T19:15:42;100606.66;;;9.48
25985;BMP280;66753;53.848;10.658;2024-02-21T19:30:44;100574.03;;;9.44
25985;BMP280;66753;53.848;10.658;2024-02-21T19:45:46;100549.91;;;9.45
25985;BMP280;66753;53.848;10.658;2024-02-21T20:00:47;100519.66;;;9.46
25985;BMP280;66753;53.848;10.658;2024-02-21T20:15:48;100489.78;;;9.46
25985;BMP280;66753;53.848;10.658;2024-02-21T20:30:49;100466.34;;;9.44
25985;BMP280;66753;53.848;10.658;2024-02-21T20:45:53;100423.25;;;9.44
25985;BMP280;66753;53.848;10.658;2024-02-21T21:00:54;100395.34;;;9.46
25985;BMP280;66753;53.848;10.658;2024-02-21T21:15:56;100352.81;;;9.51
25985;BMP280;66753;53.848;10.658;2024-02-21T21:30:58;100338.91;;;9.54
25985;BMP280;66753;53.848;10.658;2024-02-21T21:45:59;100305.94;;;9.52
25985;BMP280;66753;53.848;10.658;2024-02-21T22:01:00;100274.03;;;9.45
25985;BMP280;66753;53.848;10.658;2024-02-21T22:16:01;100236.75;;;9.38
25985;BMP280;66753;53.848;10.658;2024-02-21T22:31:06;100221.69;;;9.38
25985;BMP280;66753;53.848;10.658;2024-02-21T22:46:10;100183.88;;;9.38
25985;BMP280;66753;53.848;10.658;2024-02-21T23:01:12;100160.75;;;9.35
25985;BMP280;66753;53.848;10.658;2024-02-21T23:16:17;100127.72;;;9.29
25985;BMP280;66753;53.848;10.658;2024-02-21T23:31:18;100113.22;;;9.23
25985;BMP280;66753;53.848;10.658;2024-02-21T23:46:19;100083.59;;;9.17
